createdAt,value
2023-06-01T00:00:20.066Z,13.97
2023-06-01T00:01:13.684Z,13.95
2023-06-01T00:02:05.858Z,14.01
2023-06-01T00:02:56.652Z,13.89
2023-06-01T00:03:47.490Z,13.91
2023-06-01T00:04:41.820Z,13.87
2023-06-01T00:05:32.742Z,13.92
2023-06-01T00:06:23.536Z,13.87
2023-06-01T00:07:14.286Z,13.88
2023-06-01T00:08:05.590Z,13.66
2023-06-01T00:08:56.363Z,13.55
2023-06-01T00:09:47.161Z,13.57
2023-06-01T00:10:37.949Z,13.58
2023-06-01T00:11:29.048Z,13.69
2023-06-01T00:12:19.965Z,13.75
2023-06-01T00:13:10.694Z,13.88
2023-06-01T00:14:01.461Z,13.96
2023-06-01T00:14:52.351Z,13.86
2023-06-01T00:15:44.770Z,13.91
2023-06-01T00:16:36.087Z,13.81
2023-06-01T00:17:30.183Z,13.92
2023-06-01T00:18:21.107Z,13.96
2023-06-01T00:19:12.378Z,13.96
2023-06-01T00:20:08.817Z,13.94
2023-06-01T00:21:01.623Z,13.89
2023-06-01T00:21:56.834Z,13.64
2023-06-01T00:22:49.928Z,13.68
2023-06-01T00:23:43.933Z,13.59
2023-06-01T00:24:34.648Z,13.59
2023-06-01T00:25:25.595Z,13.68
2023-06-01T00:26:16.737Z,13.56
2023-06-01T00:27:13.642Z,13.53
2023-06-01T00:28:04.417Z,13.50
2023-06-01T00:28:55.349Z,13.54
2023-06-01T00:29:46.051Z,13.57
2023-06-01T00:30:37.966Z,13.49
2023-06-01T00:31:28.768Z,13.48
2023-06-01T00:32:19.469Z,13.59
2023-06-01T00:33:11.668Z,13.43
2023-06-01T00:34:02.464Z,13.38
2023-06-01T00:34:53.330Z,13.36
2023-06-01T00:35:44.549Z,13.54
2023-06-01T00:36:36.724Z,13.44
2023-06-01T00:37:27.655Z,13.29
2023-06-01T00:38:18.317Z,13.21
2023-06-01T00:39:09.169Z,13.12
2023-06-01T00:39:59.976Z,13.23
2023-06-01T00:40:52.093Z,13.31
2023-06-01T00:41:42.724Z,13.36
2023-06-01T00:42:33.542Z,13.28
2023-06-01T00:43:24.714Z,13.29
2023-06-01T00:44:16.084Z,13.26
2023-06-01T00:45:07.224Z,13.46
2023-06-01T00:45:58.122Z,13.36
2023-06-01T00:46:50.945Z,13.31
2023-06-01T00:47:44.225Z,13.23
2023-06-01T00:48:36.055Z,13.26
2023-06-01T00:49:27.578Z,13.17
2023-06-01T00:50:19.183Z,13.19
2023-06-01T00:51:09.985Z,13.19
2023-06-01T00:52:01.502Z,13.08
2023-06-01T00:52:53.851Z,13.06
2023-06-01T00:53:45.431Z,13.00
2023-06-01T00:54:36.877Z,12.99
2023-06-01T00:55:28.320Z,13.02
2023-06-01T00:56:19.860Z,12.95
2023-06-01T00:57:10.938Z,12.97
2023-06-01T00:58:02.619Z,13.01
2023-06-01T00:58:53.854Z,13.20
2023-06-01T00:59:44.462Z,13.28
2023-06-01T01:00:35.439Z,13.25
2023-06-01T01:01:27.232Z,13.28
2023-06-01T01:02:19.627Z,13.20
2023-06-01T01:03:11.562Z,13.09
2023-06-01T01:04:03.133Z,12.98
2023-06-01T01:04:54.089Z,12.97
2023-06-01T01:05:45.352Z,12.90
2023-06-01T01:06:57.449Z,13.10
2023-06-01T01:08:31.757Z,13.22
2023-06-01T01:09:45.762Z,13.16
2023-06-01T01:11:04.801Z,13.25
2023-06-01T01:12:02.935Z,13.24
2023-06-01T01:13:09.232Z,12.92
2023-06-01T01:14:10.888Z,12.94
2023-06-01T01:15:23.155Z,12.93
2023-06-01T01:16:36.626Z,12.86
2023-06-01T01:17:46.678Z,12.88
2023-06-01T01:18:43.431Z,12.99
2023-06-01T01:19:35.503Z,12.96
2023-06-01T01:20:30.641Z,12.84
2023-06-01T01:21:31.074Z,12.91
2023-06-01T01:22:47.802Z,12.95
2023-06-01T01:24:07.760Z,13.00
2023-06-01T01:25:08.351Z,13.01
2023-06-01T01:26:30.499Z,13.16
2023-06-01T01:27:38.442Z,12.88
2023-06-01T01:28:43.485Z,12.80
2023-06-01T01:29:36.178Z,12.72
2023-06-01T01:30:29.629Z,12.71
2023-06-01T01:31:24.781Z,12.77
2023-06-01T01:32:18.003Z,12.82
2023-06-01T01:33:09.067Z,12.87
2023-06-01T01:34:00.578Z,12.89
2023-06-01T01:34:53.428Z,12.80
2023-06-01T01:35:44.434Z,12.71
2023-06-01T01:36:37.206Z,12.67
2023-06-01T01:37:30.691Z,12.76
2023-06-01T01:38:21.882Z,12.59
2023-06-01T01:39:12.703Z,12.51
2023-06-01T01:40:04.514Z,12.57
2023-06-01T01:40:55.523Z,12.47
2023-06-01T01:41:46.611Z,12.59
2023-06-01T01:42:37.362Z,12.56
2023-06-01T01:43:28.170Z,12.64
2023-06-01T01:44:20.139Z,12.64
2023-06-01T01:45:11.730Z,12.71
2023-06-01T01:46:16.489Z,12.74
2023-06-01T01:47:14.298Z,12.59
2023-06-01T01:48:24.041Z,12.62
2023-06-01T01:49:28.415Z,12.56
2023-06-01T01:50:22.672Z,12.55
2023-06-01T01:51:40.989Z,12.59
2023-06-01T01:52:40.987Z,12.50
2023-06-01T01:53:32.363Z,12.55
2023-06-01T01:54:25.490Z,12.56
2023-06-01T01:55:19.696Z,12.51
2023-06-01T01:56:10.675Z,12.51
2023-06-01T01:57:02.563Z,12.69
2023-06-01T01:57:54.392Z,12.75
2023-06-01T01:58:46.289Z,12.57
2023-06-01T01:59:37.749Z,12.47
2023-06-01T02:00:29.329Z,12.41
2023-06-01T02:01:21.707Z,12.42
2023-06-01T02:02:12.968Z,12.28
2023-06-01T02:03:04.173Z,12.21
2023-06-01T02:04:05.450Z,12.10
2023-06-01T02:04:56.547Z,12.09
2023-06-01T02:05:47.580Z,12.09
2023-06-01T02:06:38.516Z,12.06
2023-06-01T02:07:30.075Z,12.11
2023-06-01T02:08:21.455Z,12.11
2023-06-01T02:09:12.242Z,11.96
2023-06-01T02:10:04.069Z,12.04
2023-06-01T02:10:55.254Z,12.04
2023-06-01T02:11:46.086Z,12.18
2023-06-01T02:12:37.369Z,12.20
2023-06-01T02:13:28.042Z,12.21
2023-06-01T02:14:18.815Z,12.06
2023-06-01T02:15:10.070Z,11.91
2023-06-01T02:16:01.041Z,11.91
2023-06-01T02:16:54.938Z,11.87
2023-06-01T02:17:47.074Z,11.99
2023-06-01T02:18:40.428Z,11.94
2023-06-01T02:19:32.068Z,11.82
2023-06-01T02:20:23.140Z,11.66
2023-06-01T02:21:14.851Z,11.80
2023-06-01T02:22:05.998Z,11.65
2023-06-01T02:22:57.031Z,11.63
2023-06-01T02:23:47.754Z,11.77
2023-06-01T02:24:38.649Z,11.82
2023-06-01T02:25:29.514Z,11.90
2023-06-01T02:26:20.504Z,11.95
2023-06-01T02:27:11.495Z,11.98
2023-06-01T02:28:02.874Z,11.88
2023-06-01T02:29:44.679Z,12.13
2023-06-01T02:30:35.901Z,12.15
2023-06-01T02:31:27.942Z,12.03
2023-06-01T02:32:18.843Z,11.91
2023-06-01T02:33:09.675Z,11.96
2023-06-01T02:34:03.054Z,12.14
2023-06-01T02:34:54.240Z,12.09
2023-06-01T02:35:44.960Z,12.05
2023-06-01T02:36:36.297Z,12.02
2023-06-01T02:37:27.363Z,12.11
2023-06-01T02:38:18.454Z,12.07
2023-06-01T02:39:09.206Z,11.78
2023-06-01T02:39:59.889Z,11.67
2023-06-01T02:40:50.927Z,11.51
2023-06-01T02:41:41.848Z,11.60
2023-06-01T02:42:32.522Z,11.68
2023-06-01T02:43:23.187Z,11.50
2023-06-01T02:44:14.093Z,11.51
2023-06-01T02:45:07.469Z,11.50
2023-06-01T02:45:58.262Z,11.59
2023-06-01T02:46:51.493Z,11.78
2023-06-01T02:47:42.425Z,11.71
2023-06-01T02:48:33.071Z,11.56
2023-06-01T02:49:23.916Z,11.56
2023-06-01T02:50:15.165Z,11.54
2023-06-01T02:51:10.130Z,11.58
2023-06-01T02:52:01.579Z,11.73
2023-06-01T02:52:53.195Z,11.69
2023-06-01T02:53:44.134Z,11.68
2023-06-01T02:54:37.498Z,11.51
2023-06-01T02:55:45.576Z,11.63
2023-06-01T02:57:03.733Z,11.33
2023-06-01T02:58:00.680Z,11.32
2023-06-01T02:58:53.660Z,11.22
2023-06-01T02:59:50.679Z,11.45
2023-06-01T03:00:41.502Z,11.42
2023-06-01T03:01:36.353Z,11.38
2023-06-01T03:02:29.185Z,11.31
2023-06-01T03:03:19.928Z,11.29
2023-06-01T03:04:12.042Z,11.25
2023-06-01T03:05:07.248Z,11.19
2023-06-01T03:06:01.243Z,11.35
2023-06-01T03:07:18.375Z,11.35
2023-06-01T03:08:18.809Z,11.47
2023-06-01T03:09:14.334Z,11.33
2023-06-01T03:10:31.407Z,11.28
2023-06-01T03:11:27.712Z,11.11
2023-06-01T03:12:18.368Z,11.28
2023-06-01T03:13:09.148Z,11.29
2023-06-01T03:13:59.977Z,11.32
2023-06-01T03:14:53.053Z,11.29
2023-06-01T03:15:43.920Z,11.27
2023-06-01T03:16:35.926Z,11.33
2023-06-01T03:17:46.643Z,11.38
2023-06-01T03:18:38.928Z,11.39
2023-06-01T03:19:30.223Z,11.48
2023-06-01T03:20:23.965Z,11.33
2023-06-01T03:21:14.853Z,11.35
2023-06-01T03:22:06.562Z,11.39
2023-06-01T03:22:57.370Z,11.54
2023-06-01T03:23:48.191Z,11.38
2023-06-01T03:24:42.343Z,11.26
2023-06-01T03:25:34.531Z,11.39
2023-06-01T03:26:25.762Z,11.47
2023-06-01T03:27:18.002Z,11.37
2023-06-01T03:28:09.036Z,11.41
2023-06-01T03:29:01.652Z,11.45
2023-06-01T03:29:55.685Z,11.58
2023-06-01T03:30:47.910Z,11.46
2023-06-01T03:31:38.948Z,11.52
2023-06-01T03:32:29.819Z,11.44
2023-06-01T03:33:23.172Z,11.58
2023-06-01T03:34:14.267Z,11.81
2023-06-01T03:35:08.474Z,12.16
2023-06-01T03:35:59.249Z,12.36
2023-06-01T03:36:50.794Z,12.44
2023-06-01T03:37:43.506Z,12.69
2023-06-01T03:38:35.755Z,13.00
2023-06-01T03:39:26.886Z,13.29
2023-06-01T03:40:17.702Z,13.30
2023-06-01T03:41:09.528Z,13.54
2023-06-01T03:42:00.634Z,13.68
2023-06-01T03:42:51.833Z,13.93
2023-06-01T03:43:43.138Z,14.20
2023-06-01T03:44:34.287Z,14.69
2023-06-01T03:45:25.184Z,15.11
2023-06-01T03:46:16.579Z,15.21
2023-06-01T03:47:07.300Z,15.44
2023-06-01T03:47:58.688Z,15.85
2023-06-01T03:48:49.459Z,15.60
2023-06-01T03:49:40.261Z,15.62
2023-06-01T03:50:36.877Z,15.99
2023-06-01T03:51:28.242Z,16.28
2023-06-01T03:52:19.394Z,16.45
2023-06-01T03:53:10.568Z,16.32
2023-06-01T03:54:01.944Z,16.41
2023-06-01T03:54:53.224Z,16.82
2023-06-01T03:56:04.078Z,17.27
2023-06-01T03:56:57.116Z,17.70
2023-06-01T03:57:48.019Z,17.82
2023-06-01T03:58:39.086Z,18.01
2023-06-01T03:59:30.089Z,17.71
2023-06-01T04:00:21.599Z,17.99
2023-06-01T04:01:18.004Z,18.12
2023-06-01T04:02:12.028Z,18.54
2023-06-01T04:03:08.156Z,18.42
2023-06-01T04:03:59.836Z,18.60
2023-06-01T04:04:50.952Z,18.49
2023-06-01T04:05:42.373Z,18.36
2023-06-01T04:06:36.562Z,18.34
2023-06-01T04:07:28.613Z,18.41
2023-06-01T04:08:21.308Z,18.55
2023-06-01T04:09:12.990Z,18.70
2023-06-01T04:10:04.016Z,19.11
2023-06-01T04:10:54.985Z,18.76
2023-06-01T04:11:46.763Z,19.00
2023-06-01T04:12:38.290Z,19.18
2023-06-01T04:13:29.995Z,19.58
2023-06-01T04:14:21.785Z,19.47
2023-06-01T04:15:14.463Z,19.85
2023-06-01T04:16:05.870Z,19.65
2023-06-01T04:16:57.741Z,20.04
2023-06-01T04:17:48.832Z,20.17
2023-06-01T04:18:40.026Z,20.36
2023-06-01T04:19:31.035Z,20.63
2023-06-01T04:20:27.460Z,20.53
2023-06-01T04:21:21.616Z,20.67
2023-06-01T04:22:13.556Z,20.83
2023-06-01T04:23:04.286Z,20.83
2023-06-01T04:23:55.092Z,21.00
2023-06-01T04:24:46.791Z,21.01
2023-06-01T04:25:40.189Z,21.32
2023-06-01T04:26:33.088Z,21.12
2023-06-01T04:27:25.684Z,21.19
2023-06-01T04:28:16.616Z,21.58
2023-06-01T04:29:09.701Z,21.56
2023-06-01T04:30:02.100Z,21.52
2023-06-01T04:30:53.106Z,20.98
2023-06-01T04:31:44.440Z,20.63
2023-06-01T04:32:38.946Z,20.98
2023-06-01T04:33:29.946Z,21.46
2023-06-01T04:34:21.806Z,21.49
2023-06-01T04:35:13.235Z,21.71
2023-06-01T04:36:04.550Z,21.90
2023-06-01T04:36:57.106Z,21.11
2023-06-01T04:37:50.202Z,21.05
2023-06-01T04:38:42.991Z,21.51
2023-06-01T04:39:35.815Z,21.44
2023-06-01T04:40:27.818Z,22.03
2023-06-01T04:41:18.722Z,22.17
2023-06-01T04:42:09.804Z,22.15
2023-06-01T04:43:03.697Z,22.09
2023-06-01T04:43:55.716Z,21.91
2023-06-01T04:44:50.704Z,21.92
2023-06-01T04:45:41.879Z,21.67
2023-06-01T04:46:33.541Z,21.88
2023-06-01T04:48:21.240Z,21.85
2023-06-01T04:49:19.677Z,21.90
2023-06-01T04:50:12.326Z,21.96
2023-06-01T04:51:05.190Z,22.19
2023-06-01T04:51:56.492Z,22.17
2023-06-01T04:52:49.127Z,21.88
2023-06-01T04:53:41.808Z,21.40
2023-06-01T04:54:32.535Z,21.56
2023-06-01T04:55:23.254Z,21.62
2023-06-01T04:56:14.098Z,21.48
2023-06-01T04:57:07.250Z,21.73
2023-06-01T04:57:58.641Z,21.76
2023-06-01T04:58:50.016Z,21.61
2023-06-01T04:59:44.103Z,21.35
2023-06-01T05:00:34.733Z,21.33
2023-06-01T05:01:27.202Z,21.36
2023-06-01T05:02:19.000Z,22.19
2023-06-01T05:03:09.771Z,22.08
2023-06-01T05:04:01.644Z,22.44
2023-06-01T05:04:52.883Z,22.85
2023-06-01T05:05:45.263Z,23.54
2023-06-01T05:06:37.120Z,23.63
2023-06-01T05:07:28.267Z,23.62
2023-06-01T05:08:19.150Z,23.67
2023-06-01T05:09:09.904Z,23.64
2023-06-01T05:10:05.287Z,23.77
2023-06-01T05:10:58.001Z,23.10
2023-06-01T05:11:49.080Z,23.35
2023-06-01T05:12:40.587Z,23.19
2023-06-01T05:13:31.347Z,22.80
2023-06-01T05:14:22.162Z,23.28
2023-06-01T05:15:14.578Z,23.36
2023-06-01T05:16:07.749Z,23.09
2023-06-01T05:16:58.886Z,22.93
2023-06-01T05:17:51.031Z,22.75
2023-06-01T05:18:44.024Z,22.85
2023-06-01T05:19:34.765Z,23.04
2023-06-01T05:20:25.588Z,23.43
2023-06-01T05:21:22.755Z,23.64
2023-06-01T05:22:14.679Z,23.28
2023-06-01T05:23:05.426Z,23.93
2023-06-01T05:23:56.844Z,24.18
2023-06-01T05:24:47.804Z,24.16
2023-06-01T05:25:39.199Z,23.99
2023-06-01T05:26:30.170Z,24.10
2023-06-01T05:27:22.553Z,23.57
2023-06-01T05:28:13.294Z,23.47
2023-06-01T05:29:05.404Z,23.52
2023-06-01T05:29:56.751Z,23.05
2023-06-01T05:30:51.536Z,22.73
2023-06-01T05:31:42.747Z,22.49
2023-06-01T05:32:34.108Z,22.68
2023-06-01T05:33:31.684Z,23.03
2023-06-01T05:34:23.463Z,23.05
2023-06-01T05:35:14.564Z,22.54
2023-06-01T05:36:05.848Z,22.47
2023-06-01T05:36:57.314Z,22.71
2023-06-01T05:37:48.468Z,23.20
2023-06-01T05:38:39.995Z,23.19
2023-06-01T05:39:31.887Z,23.09
2023-06-01T05:40:22.878Z,23.68
2023-06-01T05:41:13.509Z,23.65
2023-06-01T05:42:05.195Z,23.87
2023-06-01T05:43:00.490Z,23.58
2023-06-01T05:43:52.388Z,23.50
2023-06-01T05:44:44.178Z,23.82
2023-06-01T05:45:37.100Z,23.46
2023-06-01T05:46:28.165Z,23.34
2023-06-01T05:47:18.885Z,23.43
2023-06-01T05:48:09.657Z,23.64
2023-06-01T05:49:00.763Z,24.07
2023-06-01T05:49:52.106Z,23.97
2023-06-01T05:50:43.327Z,24.29
2023-06-01T05:51:37.915Z,24.19
2023-06-01T05:52:29.831Z,24.07
2023-06-01T05:53:20.709Z,24.25
2023-06-01T05:54:12.242Z,23.79
2023-06-01T05:55:03.708Z,24.12
2023-06-01T05:55:54.948Z,23.71
2023-06-01T05:56:45.856Z,23.83
2023-06-01T05:57:38.410Z,24.29
2023-06-01T05:58:29.702Z,23.39
2023-06-01T05:59:21.424Z,23.58
2023-06-01T06:00:14.804Z,23.27
2023-06-01T06:01:11.259Z,23.97
2023-06-01T06:02:02.301Z,24.50
2023-06-01T06:02:52.934Z,24.78
2023-06-01T06:03:44.037Z,24.22
2023-06-01T06:04:34.989Z,24.38
2023-06-01T06:05:25.707Z,24.56
2023-06-01T06:06:17.029Z,24.68
2023-06-01T06:07:10.185Z,24.63
2023-06-01T06:08:02.137Z,24.16
2023-06-01T06:08:52.933Z,23.86
2023-06-01T06:09:43.440Z,24.00
2023-06-01T06:10:34.163Z,24.23
2023-06-01T06:11:25.302Z,24.19
2023-06-01T06:12:16.518Z,24.60
2023-06-01T06:13:07.260Z,24.07
2023-06-01T06:13:58.483Z,24.95
2023-06-01T06:14:50.111Z,24.88
2023-06-01T06:15:40.842Z,24.84
2023-06-01T06:16:31.874Z,24.98
2023-06-01T06:17:23.040Z,24.67
2023-06-01T06:18:13.881Z,24.86
2023-06-01T06:19:04.721Z,24.94
2023-06-01T06:19:55.456Z,24.66
2023-06-01T06:20:47.335Z,24.67
2023-06-01T06:21:38.943Z,24.94
2023-06-01T06:22:29.818Z,24.73
2023-06-01T06:23:22.133Z,24.60
2023-06-01T06:24:13.042Z,24.34
2023-06-01T06:25:05.114Z,25.01
2023-06-01T06:25:56.498Z,24.87
2023-06-01T06:26:48.393Z,24.86
2023-06-01T06:27:39.201Z,24.80
2023-06-01T06:28:30.041Z,25.15
2023-06-01T06:29:20.921Z,24.82
2023-06-01T06:30:14.256Z,24.24
2023-06-01T06:31:05.173Z,24.07
2023-06-01T06:31:56.155Z,24.39
2023-06-01T06:32:47.107Z,24.60
2023-06-01T06:33:40.497Z,25.03
2023-06-01T06:34:36.689Z,24.87
2023-06-01T06:35:27.603Z,25.48
2023-06-01T06:36:18.549Z,25.08
2023-06-01T06:37:09.277Z,25.36
2023-06-01T06:37:59.991Z,25.36
2023-06-01T06:38:50.960Z,25.46
2023-06-01T06:39:41.984Z,25.42
2023-06-01T06:40:32.676Z,25.05
2023-06-01T06:41:24.272Z,25.05
2023-06-01T06:42:15.436Z,25.68
2023-06-01T06:43:06.163Z,25.68
2023-06-01T06:43:56.796Z,25.66
2023-06-01T06:44:47.555Z,25.83
2023-06-01T06:48:05.123Z,26.26
2023-06-01T06:48:56.417Z,26.12
2023-06-01T06:49:47.551Z,25.82
2023-06-01T06:50:39.579Z,25.75
2023-06-01T06:51:30.259Z,25.80
2023-06-01T06:52:21.116Z,25.91
2023-06-01T06:53:13.255Z,26.20
2023-06-01T06:54:06.413Z,26.24
2023-06-01T06:54:58.168Z,25.69
2023-06-01T06:55:49.157Z,25.25
2023-06-01T06:56:39.853Z,25.33
2023-06-01T06:57:30.880Z,25.33
2023-06-01T06:58:21.952Z,24.95
2023-06-01T06:59:13.789Z,24.86
2023-06-01T07:00:05.264Z,24.83
2023-06-01T07:00:56.263Z,25.29
2023-06-01T07:01:47.893Z,25.13
2023-06-01T07:02:38.515Z,25.45
2023-06-01T07:03:29.407Z,25.42
2023-06-01T07:04:20.519Z,25.39
2023-06-01T07:05:12.073Z,25.05
2023-06-01T07:06:03.100Z,24.68
2023-06-01T07:06:54.426Z,24.35
2023-06-01T07:07:45.810Z,24.39
2023-06-01T07:08:37.207Z,24.97
2023-06-01T07:09:28.006Z,24.89
2023-06-01T07:10:19.014Z,24.82
2023-06-01T07:11:10.259Z,24.66
2023-06-01T07:12:01.104Z,24.86
2023-06-01T07:12:51.853Z,25.24
2023-06-01T07:13:42.666Z,25.31
2023-06-01T07:14:33.570Z,24.88
2023-06-01T07:15:25.429Z,24.69
2023-06-01T07:16:17.071Z,24.92
2023-06-01T07:17:08.329Z,25.04
2023-06-01T07:17:59.686Z,25.05
2023-06-01T07:18:50.703Z,25.17
2023-06-01T07:19:41.400Z,25.29
2023-06-01T07:20:32.141Z,25.84
2023-06-01T07:21:23.265Z,26.20
2023-06-01T07:22:14.794Z,25.45
2023-06-01T07:23:05.774Z,25.58
2023-06-01T07:23:57.044Z,25.79
2023-06-01T07:24:48.671Z,26.01
2023-06-01T07:25:39.946Z,25.20
2023-06-01T07:26:30.973Z,25.16
2023-06-01T07:27:22.116Z,25.11
2023-06-01T07:28:14.071Z,25.34
2023-06-01T07:29:04.948Z,25.72
2023-06-01T07:29:57.094Z,25.98
2023-06-01T07:30:48.250Z,26.19
2023-06-01T07:31:40.103Z,26.23
2023-06-01T07:32:31.220Z,26.02
2023-06-01T07:33:23.981Z,26.12
2023-06-01T07:34:14.798Z,26.05
2023-06-01T07:35:07.554Z,26.47
2023-06-01T07:35:59.497Z,26.18
2023-06-01T07:36:51.593Z,26.11
2023-06-01T07:37:47.057Z,25.84
2023-06-01T07:38:39.377Z,26.44
2023-06-01T07:39:32.060Z,26.23
2023-06-01T07:40:23.267Z,26.32
2023-06-01T07:41:14.481Z,26.08
2023-06-01T07:42:07.639Z,26.28
2023-06-01T07:42:58.296Z,26.11
2023-06-01T07:43:49.011Z,26.30
2023-06-01T07:44:39.681Z,26.22
2023-06-01T07:45:30.517Z,26.28
2023-06-01T07:46:21.639Z,26.35
2023-06-01T07:47:12.383Z,27.08
2023-06-01T07:48:03.218Z,26.68
2023-06-01T07:48:54.050Z,26.50
2023-06-01T07:49:44.724Z,27.08
2023-06-01T07:50:35.743Z,27.13
2023-06-01T07:51:26.691Z,26.72
2023-06-01T07:52:33.475Z,26.71
2023-06-01T07:53:27.450Z,26.75
2023-06-01T07:54:19.148Z,26.64
2023-06-01T07:55:11.055Z,26.83
2023-06-01T07:56:02.600Z,26.96
2023-06-01T07:56:54.742Z,26.82
2023-06-01T07:57:45.730Z,26.56
2023-06-01T07:58:37.687Z,26.86
2023-06-01T07:59:30.032Z,26.98
2023-06-01T08:00:21.089Z,27.11
2023-06-01T08:01:12.078Z,26.61
2023-06-01T08:02:03.106Z,26.45
2023-06-01T08:02:54.215Z,26.81
2023-06-01T08:03:45.147Z,27.03
2023-06-01T08:04:36.659Z,26.93
2023-06-01T08:05:27.942Z,27.24
2023-06-01T08:06:19.041Z,27.31
2023-06-01T08:07:10.367Z,27.10
2023-06-01T08:08:01.668Z,26.78
2023-06-01T08:08:52.366Z,26.59
2023-06-01T08:09:44.396Z,26.36
2023-06-01T08:10:35.389Z,26.62
2023-06-01T08:11:29.457Z,27.03
2023-06-01T08:12:20.283Z,26.93
2023-06-01T08:13:11.174Z,26.68
2023-06-01T08:14:01.927Z,26.65
2023-06-01T08:14:52.860Z,26.72
2023-06-01T08:15:44.136Z,27.11
2023-06-01T08:16:35.992Z,27.21
2023-06-01T08:17:26.996Z,26.91
2023-06-01T08:18:17.748Z,27.22
2023-06-01T08:19:09.094Z,27.57
2023-06-01T08:19:59.938Z,27.09
2023-06-01T08:20:50.971Z,26.48
2023-06-01T08:21:42.552Z,25.81
2023-06-01T08:22:34.885Z,25.75
2023-06-01T08:23:25.647Z,25.80
2023-06-01T08:24:17.638Z,25.55
2023-06-01T08:25:08.865Z,25.59
2023-06-01T08:26:00.149Z,25.71
2023-06-01T08:26:52.055Z,25.94
2023-06-01T08:27:43.386Z,25.66
2023-06-01T08:28:34.551Z,25.46
2023-06-01T08:29:41.420Z,25.74
2023-06-01T08:30:33.744Z,25.46
2023-06-01T08:31:26.043Z,25.52
2023-06-01T08:32:18.294Z,25.48
2023-06-01T08:33:09.484Z,25.63
2023-06-01T08:34:00.208Z,25.48
2023-06-01T08:34:50.963Z,25.44
2023-06-01T08:35:41.777Z,25.36
2023-06-01T08:36:32.831Z,25.56
2023-06-01T08:37:23.568Z,25.51
2023-06-01T08:38:14.396Z,25.47
2023-06-01T08:39:22.462Z,24.90
2023-06-01T08:40:13.746Z,24.71
2023-06-01T08:41:13.005Z,25.40
2023-06-01T08:42:14.560Z,25.66
2023-06-01T08:43:19.743Z,25.87
2023-06-01T08:44:12.573Z,25.82
2023-06-01T08:45:06.537Z,25.77
2023-06-01T08:45:58.743Z,25.76
2023-06-01T08:46:49.920Z,26.19
2023-06-01T08:47:42.063Z,26.33
2023-06-01T08:48:33.192Z,26.13
2023-06-01T08:49:26.046Z,26.06
2023-06-01T08:50:17.479Z,25.88
2023-06-01T08:51:08.907Z,25.73
2023-06-01T08:52:05.622Z,25.82
2023-06-01T08:52:57.920Z,25.83
2023-06-01T08:53:50.551Z,25.86
2023-06-01T08:54:41.375Z,26.17
2023-06-01T08:55:32.240Z,26.40
2023-06-01T08:56:23.398Z,26.53
2023-06-01T08:57:14.984Z,26.42
2023-06-01T08:58:06.557Z,26.83
2023-06-01T08:58:57.793Z,27.25
2023-06-01T08:59:48.460Z,27.13
2023-06-01T09:00:39.855Z,27.13
2023-06-01T09:01:30.984Z,27.31
2023-06-01T09:02:22.144Z,27.24
2023-06-01T09:03:13.930Z,27.14
2023-06-01T09:04:04.970Z,26.76
2023-06-01T09:04:56.293Z,26.89
2023-06-01T09:05:46.972Z,26.37
2023-06-01T09:06:40.515Z,26.17
2023-06-01T09:07:34.131Z,26.13
2023-06-01T09:08:25.771Z,26.19
2023-06-01T09:09:16.614Z,25.94
2023-06-01T09:10:08.586Z,26.01
2023-06-01T09:11:01.051Z,25.72
2023-06-01T09:12:26.890Z,25.76
2023-06-01T09:13:38.115Z,25.25
2023-06-01T09:14:28.840Z,25.01
2023-06-01T09:15:20.373Z,25.00
2023-06-01T09:16:11.350Z,25.12
2023-06-01T09:17:02.209Z,25.21
2023-06-01T09:18:04.534Z,25.02
2023-06-01T09:18:56.405Z,25.20
2023-06-01T09:19:47.389Z,25.39
2023-06-01T09:20:40.613Z,25.62
2023-06-01T09:21:32.421Z,25.81
2023-06-01T09:22:23.717Z,25.90
2023-06-01T09:23:30.001Z,25.98
2023-06-01T09:24:23.022Z,26.02
2023-06-01T09:25:15.292Z,26.32
2023-06-01T09:26:07.791Z,26.45
2023-06-01T09:27:03.912Z,26.68
2023-06-01T09:27:56.584Z,26.59
2023-06-01T09:29:00.496Z,26.92
2023-06-01T09:29:58.746Z,27.24
2023-06-01T09:30:49.670Z,27.15
2023-06-01T09:31:42.459Z,27.02
2023-06-01T09:32:34.864Z,26.77
2023-06-01T09:33:26.549Z,26.45
2023-06-01T09:34:21.758Z,26.45
2023-06-01T09:35:12.788Z,26.38
2023-06-01T09:36:03.758Z,26.56
2023-06-01T09:36:56.654Z,26.77
2023-06-01T09:37:57.539Z,26.56
2023-06-01T09:38:48.709Z,26.45
2023-06-01T09:39:39.499Z,26.36
2023-06-01T09:40:30.660Z,25.87
2023-06-01T09:41:23.959Z,26.02
2023-06-01T09:42:15.493Z,25.96
2023-06-01T09:43:22.930Z,26.31
2023-06-01T09:44:15.230Z,26.01
2023-06-01T09:45:38.691Z,26.17
2023-06-01T09:46:29.641Z,26.20
2023-06-01T09:47:29.232Z,26.37
2023-06-01T09:48:20.139Z,26.65
2023-06-01T09:49:10.821Z,26.89
2023-06-01T09:50:04.397Z,27.04
2023-06-01T09:50:55.023Z,27.00
2023-06-01T09:51:45.964Z,27.12
2023-06-01T09:52:36.794Z,26.75
2023-06-01T09:53:28.088Z,27.08
2023-06-01T09:54:27.027Z,26.73
2023-06-01T09:55:17.917Z,26.94
2023-06-01T09:56:08.624Z,27.09
2023-06-01T09:57:10.811Z,27.24
2023-06-01T09:58:22.800Z,26.65
2023-06-01T09:59:15.390Z,26.25
2023-06-01T10:00:07.021Z,26.01
2023-06-01T10:01:02.133Z,25.95
2023-06-01T10:01:54.804Z,25.45
2023-06-01T10:02:46.231Z,25.13
2023-06-01T10:03:43.306Z,25.11
2023-06-01T10:04:38.229Z,24.97
2023-06-01T10:05:29.365Z,24.92
2023-06-01T10:06:20.795Z,24.94
2023-06-01T10:07:14.045Z,24.85
2023-06-01T10:08:05.256Z,25.22
2023-06-01T10:08:57.888Z,25.25
2023-06-01T10:09:58.650Z,25.42
2023-06-01T10:10:50.606Z,25.77
2023-06-01T10:11:41.629Z,25.99
2023-06-01T10:12:34.400Z,26.16
2023-06-01T10:13:26.176Z,26.27
2023-06-01T10:14:18.415Z,26.39
2023-06-01T10:15:25.640Z,26.09
2023-06-01T10:16:20.981Z,26.06
2023-06-01T10:17:13.072Z,26.25
2023-06-01T10:18:05.389Z,26.26
2023-06-01T10:18:58.568Z,25.84
2023-06-01T10:19:50.437Z,25.66
2023-06-01T10:20:41.375Z,25.84
2023-06-01T10:21:33.341Z,25.96
2023-06-01T10:22:24.241Z,26.20
2023-06-01T10:24:10.938Z,26.34
2023-06-01T10:25:03.034Z,26.20
2023-06-01T10:25:56.250Z,26.34
2023-06-01T10:26:58.036Z,26.47
2023-06-01T10:28:03.074Z,26.21
2023-06-01T10:28:56.798Z,25.79
2023-06-01T10:29:48.601Z,25.68
2023-06-01T10:30:39.734Z,25.62
2023-06-01T10:31:42.589Z,25.31
2023-06-01T10:32:49.542Z,25.05
2023-06-01T10:33:59.146Z,25.26
2023-06-01T10:34:49.967Z,25.57
2023-06-01T10:35:52.597Z,25.71
2023-06-01T10:36:52.376Z,25.56
2023-06-01T10:37:43.049Z,25.91
2023-06-01T10:38:33.831Z,25.79
2023-06-01T10:39:26.404Z,26.13
2023-06-01T10:40:17.600Z,26.32
2023-06-01T10:41:32.049Z,26.28
2023-06-01T10:42:25.965Z,25.66
2023-06-01T10:43:41.590Z,25.38
2023-06-01T10:44:41.612Z,25.09
2023-06-01T10:45:38.970Z,24.89
2023-06-01T10:46:42.048Z,24.91
2023-06-01T10:47:34.155Z,25.18
2023-06-01T10:48:58.192Z,25.55
2023-06-01T10:49:55.264Z,26.09
2023-06-01T10:51:20.176Z,26.42
2023-06-01T10:52:29.626Z,26.59
2023-06-01T10:53:31.382Z,26.79
2023-06-01T10:54:32.119Z,26.43
2023-06-01T10:55:26.263Z,26.22
2023-06-01T10:56:23.533Z,26.18
2023-06-01T10:57:27.209Z,26.08
2023-06-01T10:58:25.218Z,26.26
2023-06-01T10:59:19.582Z,26.14
2023-06-01T11:00:29.174Z,26.31
2023-06-01T11:01:23.568Z,26.39
2023-06-01T11:02:14.398Z,26.51
2023-06-01T11:03:06.310Z,26.43
2023-06-01T11:03:57.758Z,26.27
2023-06-01T11:04:48.920Z,26.46
2023-06-01T11:05:47.696Z,26.63
2023-06-01T11:06:44.070Z,26.66
2023-06-01T11:07:40.635Z,26.45
2023-06-01T11:08:31.405Z,26.83
2023-06-01T11:09:22.144Z,27.26
2023-06-01T11:10:12.997Z,27.14
2023-06-01T11:11:05.060Z,27.00
2023-06-01T11:11:58.578Z,26.94
2023-06-01T11:13:19.101Z,27.03
2023-06-01T11:14:13.099Z,27.08
2023-06-01T11:15:13.507Z,26.98
2023-06-01T11:16:22.800Z,26.96
2023-06-01T11:17:30.143Z,27.22
2023-06-01T11:18:58.886Z,27.28
2023-06-01T11:19:50.111Z,26.99
2023-06-01T11:20:41.519Z,26.94
2023-06-01T11:21:44.794Z,26.87
2023-06-01T11:22:37.800Z,26.77
2023-06-01T11:23:28.769Z,26.70
2023-06-01T11:24:19.917Z,26.73
2023-06-01T11:25:13.401Z,26.63
2023-06-01T11:26:07.726Z,26.60
2023-06-01T11:26:58.924Z,27.11
2023-06-01T11:27:50.805Z,27.44
2023-06-01T11:28:41.933Z,27.19
2023-06-01T11:29:33.674Z,26.67
2023-06-01T11:30:24.252Z,26.49
2023-06-01T11:31:19.703Z,26.27
2023-06-01T11:32:11.227Z,26.44
2023-06-01T11:33:05.348Z,26.36
2023-06-01T11:33:58.115Z,26.67